EDDS METAR and TAF | Updated Today

EDDS METAR

Stuttgart Airport

Observation time: 404:01 hr. ago

EDDS 130120Z AUTO VRB01KT CAVOK 12/10 Q1013

Need help? Read our tutorial on how to read METARs or read the parsed version below.

Stuttgart Airport (EDDS) METAR

  • Weather conditions on Tue, 13 Sep 2022 01:20:00 +0000 (404:01 hr. ago):
  • Present conditions: Dry
  • Clouds: Clear skies
  • Visibility: Greater than 10 km
  • Wind: Variable at 1 knots
  • Temperature: 12 celsius
  • Dew point: 10 celsius
  • Pressure: 1013 millibars
  • Remarks: None


Useful to know...

EDDS TAF

Stuttgart Airport

TAF EDDS 122300Z 1300/1324 VRB03KT CAVOK TEMPO 1310/1316 06005KT
Observation time: 406:21 hr. ago
Need help? Read our tutorial on how to read TAFs or read the parsed version below.

Parsed version of TAF for Stuttgart Airport (EDDS)

  • From 13 September at 00:00 UTC, to day 13 of the month at 24:00 UTC
  • Visibility: Greater than 10 km
  • Wind: Variable at 3
  • Expected to arise temporarily, from 13 September at 10:00 UTC, to day 13 of the month at 16:00 UTC
  • Wind: 60 degrees at 5

Airports near EDDS